Strona główna
METAR-TAF:

METAR-TAF

Lotnisko :

Greenville, Maine, Stany Zjednoczone

Szerokość geograficzna: 45-28N, Długość geograficzna: 069-35W, wysokość: 427 m

Aktualna obserwacja pogody

Raport powstał 1 godzina i 6 minut temu, godzina 05:56 UTC
Wiatr 8 kt od południowy wschód
Temperatura -6°C
Wilgotność 73%
Ciśnienie 1006 hPa

METAR: KGNR 240556Z AUTO 14008KT M06/M10 A2972 RMK AO1 SLP091 60002 T10611100 11061 21083 58018

czas: 02:02 (07:02 UTC)


TAF: brakujący

Obserwacja i prognoza pogody dla ponad 4000 lotnisk (raport METAR i TAF).

Dostępne stacje oznaczono żółtymi i czerwonymi punktami na mapie.

Najedź kursorem aby zobaczyć nazwę stacji.

Kliknij aby zobaczyć obserwacje i prognozy pogody.

Aby zmienić mapę: kliknij na zielony przycisk z czarnym krzyżykiem, aby powiększyć; na zielony przycisk z myślnikiem, aby pomniejszyć; na zielone strzałki, aby przejść do map sąsiednich.


METAR-TAF: